createdAt,value
2023-09-27T00:02:13.276Z,4.80
2023-09-27T00:04:41.217Z,4.33
2023-09-27T00:07:10.196Z,4.27
2023-09-27T00:09:37.800Z,4.77
2023-09-27T00:12:07.011Z,4.80
2023-09-27T00:14:34.892Z,7.37
2023-09-27T00:17:02.558Z,6.80
2023-09-27T00:19:31.893Z,8.50
2023-09-27T00:21:59.675Z,8.20
2023-09-27T00:24:29.231Z,6.33
2023-09-27T00:26:56.876Z,5.90
2023-09-27T00:29:24.695Z,8.63
2023-09-27T00:31:53.168Z,6.30
2023-09-27T00:34:20.794Z,5.33
2023-09-27T00:36:48.388Z,6.93
2023-09-27T00:39:16.210Z,5.40
2023-09-27T00:41:45.464Z,6.73
2023-09-27T00:44:13.098Z,5.27
2023-09-27T00:46:41.157Z,5.30
2023-09-27T00:49:09.583Z,5.63
2023-09-27T00:51:37.787Z,7.93
2023-09-27T00:54:06.376Z,7.13
2023-09-27T00:56:34.571Z,7.27
2023-09-27T00:59:04.133Z,6.77
2023-09-27T01:01:33.202Z,6.90
2023-09-27T01:04:03.018Z,6.80
2023-09-27T01:06:30.734Z,6.80
2023-09-27T01:08:58.336Z,6.20
2023-09-27T01:11:26.654Z,5.97
2023-09-27T01:13:54.364Z,5.53
2023-09-27T01:16:23.375Z,7.83
2023-09-27T01:18:51.228Z,9.50
2023-09-27T01:21:20.516Z,6.93
2023-09-27T01:23:51.102Z,5.50
2023-09-27T01:26:20.841Z,7.80
2023-09-27T01:28:49.128Z,7.03
2023-09-27T01:31:16.864Z,9.37
2023-09-27T01:33:44.495Z,5.90
2023-09-27T01:36:12.859Z,5.83
2023-09-27T01:38:40.421Z,5.73
2023-09-27T01:41:09.491Z,7.27
2023-09-27T01:43:37.190Z,6.80
2023-09-27T01:46:07.252Z,7.57
2023-09-27T01:48:37.323Z,9.10
2023-09-27T01:51:05.184Z,7.27
2023-09-27T01:53:32.865Z,8.27
2023-09-27T01:56:00.528Z,5.20
2023-09-27T01:58:29.479Z,8.53
2023-09-27T02:00:57.320Z,7.83
2023-09-27T02:03:25.157Z,5.80
2023-09-27T02:05:53.957Z,7.33
2023-09-27T02:08:22.190Z,6.53
2023-09-27T02:10:51.568Z,6.93
2023-09-27T02:13:19.170Z,6.70
2023-09-27T02:15:48.382Z,6.33
2023-09-27T02:18:16.322Z,7.33
2023-09-27T02:20:44.290Z,6.90
2023-09-27T02:23:12.270Z,6.20
2023-09-27T02:25:40.384Z,5.60
2023-09-27T02:28:08.620Z,5.73
2023-09-27T02:30:36.580Z,7.07
2023-09-27T02:33:05.974Z,7.17
2023-09-27T02:35:33.547Z,6.23
2023-09-27T02:38:01.273Z,5.30
2023-09-27T02:40:28.914Z,6.63
2023-09-27T02:42:56.668Z,6.57
2023-09-27T02:45:24.272Z,6.87
2023-09-27T02:47:51.908Z,6.30
2023-09-27T02:50:21.538Z,6.70
2023-09-27T02:52:49.998Z,7.70
2023-09-27T02:55:18.782Z,7.00
2023-09-27T02:57:53.531Z,9.83
2023-09-27T03:00:23.803Z,7.53
2023-09-27T03:02:52.577Z,8.47
2023-09-27T03:05:22.046Z,7.43
2023-09-27T03:07:49.890Z,7.67
2023-09-27T03:10:19.544Z,6.33
2023-09-27T03:12:48.800Z,7.17
2023-09-27T03:15:16.710Z,5.77
2023-09-27T03:17:45.703Z,7.37
2023-09-27T03:20:18.483Z,7.00
2023-09-27T03:22:47.868Z,6.23
2023-09-27T03:25:18.404Z,7.43
2023-09-27T03:27:46.582Z,6.80
2023-09-27T03:30:14.515Z,6.30
2023-09-27T03:32:43.506Z,8.37
2023-09-27T03:35:11.537Z,6.17
2023-09-27T03:37:39.969Z,6.43
2023-09-27T03:40:14.422Z,5.97
2023-09-27T03:42:44.301Z,6.40
2023-09-27T03:45:13.231Z,6.97
2023-09-27T03:47:41.140Z,5.90
2023-09-27T03:50:09.392Z,7.17
2023-09-27T03:52:37.159Z,5.57
2023-09-27T03:55:05.571Z,7.60
2023-09-27T03:57:35.676Z,7.13
2023-09-27T04:00:07.492Z,7.10
2023-09-27T04:02:40.611Z,8.07
2023-09-27T04:05:09.138Z,7.93
2023-09-27T04:07:37.428Z,8.03
2023-09-27T04:10:05.529Z,7.37
2023-09-27T04:12:33.144Z,5.67
2023-09-27T04:15:03.597Z,8.53
2023-09-27T04:17:31.621Z,6.93
2023-09-27T04:19:59.186Z,7.07
2023-09-27T04:22:26.876Z,8.53
2023-09-27T04:24:54.535Z,8.87
2023-09-27T04:27:22.348Z,7.33
2023-09-27T04:29:52.220Z,8.77
2023-09-27T04:32:21.238Z,6.63
2023-09-27T04:34:49.045Z,8.20
2023-09-27T04:37:18.060Z,6.80
2023-09-27T04:39:45.658Z,8.83
2023-09-27T04:42:13.304Z,7.83
2023-09-27T04:44:41.355Z,9.20
2023-09-27T04:47:09.299Z,7.03
2023-09-27T04:49:38.365Z,8.63
2023-09-27T04:52:06.155Z,8.87
2023-09-27T04:54:33.661Z,7.30
2023-09-27T04:57:01.234Z,8.47
2023-09-27T04:59:29.037Z,9.87
2023-09-27T05:01:56.817Z,7.57
2023-09-27T05:04:24.481Z,6.40
2023-09-27T05:06:53.453Z,9.93
2023-09-27T05:09:21.063Z,9.97
2023-09-27T05:11:48.977Z,12.30
2023-09-27T05:14:16.789Z,8.17
2023-09-27T05:16:44.475Z,10.90
2023-09-27T05:19:12.467Z,7.53
2023-09-27T05:21:41.233Z,9.37
2023-09-27T05:24:10.560Z,8.37
2023-09-27T05:26:38.199Z,9.20
2023-09-27T05:29:05.976Z,7.80
2023-09-27T05:31:34.136Z,9.97
2023-09-27T05:34:02.004Z,9.17
2023-09-27T05:36:29.856Z,10.67
2023-09-27T05:38:59.909Z,10.50
2023-09-27T05:41:28.897Z,11.23
2023-09-27T05:43:56.770Z,11.87
2023-09-27T05:46:24.643Z,12.60
2023-09-27T05:48:52.547Z,9.17
2023-09-27T05:51:20.274Z,9.83
2023-09-27T05:53:52.778Z,11.43
2023-09-27T05:56:20.420Z,11.77
2023-09-27T05:58:49.953Z,10.27
2023-09-27T06:01:20.454Z,10.63
2023-09-27T06:03:48.279Z,8.37
2023-09-27T06:06:16.129Z,10.40
2023-09-27T06:08:43.917Z,9.40
2023-09-27T06:11:11.969Z,11.17
2023-09-27T06:13:40.002Z,10.43
2023-09-27T06:16:15.644Z,12.43
2023-09-27T06:18:43.709Z,9.37
2023-09-27T06:21:12.050Z,10.30
2023-09-27T06:23:40.942Z,11.37
2023-09-27T06:26:08.970Z,12.70
2023-09-27T06:28:39.031Z,9.50
2023-09-27T06:31:08.262Z,10.33
2023-09-27T06:33:40.379Z,10.63
2023-09-27T06:36:08.802Z,10.27
2023-09-27T06:38:36.813Z,11.03
2023-09-27T06:41:04.838Z,9.33
2023-09-27T06:43:32.693Z,11.20
2023-09-27T06:46:02.502Z,8.93
2023-09-27T06:48:30.513Z,7.23
2023-09-27T06:50:59.642Z,7.90
2023-09-27T06:53:31.226Z,6.57
2023-09-27T06:56:01.532Z,6.30
2023-09-27T06:58:29.736Z,8.97
2023-09-27T07:00:58.536Z,9.77
2023-09-27T07:03:29.134Z,10.20
2023-09-27T07:05:59.338Z,12.00
2023-09-27T07:08:27.316Z,7.77
2023-09-27T07:10:55.413Z,7.00
2023-09-27T07:13:23.317Z,10.63
2023-09-27T07:15:52.049Z,9.00
2023-09-27T07:18:22.737Z,11.10
2023-09-27T07:20:51.573Z,7.67
2023-09-27T07:23:22.768Z,9.13
2023-09-27T07:25:50.727Z,8.47
2023-09-27T07:28:18.657Z,10.27
2023-09-27T07:30:46.381Z,7.97
2023-09-27T07:33:18.576Z,7.93
2023-09-27T07:35:47.414Z,7.77
2023-09-27T07:38:15.325Z,9.43
2023-09-27T07:40:47.018Z,11.00
2023-09-27T07:43:15.585Z,11.97
2023-09-27T07:45:45.840Z,9.93
2023-09-27T07:48:14.145Z,8.80
2023-09-27T07:50:42.000Z,9.83
2023-09-27T07:53:10.500Z,9.30
2023-09-27T07:55:44.856Z,9.93
2023-09-27T07:58:14.851Z,9.70
2023-09-27T08:00:42.613Z,7.00
2023-09-27T08:03:10.686Z,10.17
2023-09-27T08:05:43.754Z,7.37
2023-09-27T08:08:11.872Z,7.33
2023-09-27T08:10:44.241Z,8.47
2023-09-27T08:13:14.129Z,8.27
2023-09-27T08:15:42.074Z,7.40
2023-09-27T08:18:10.610Z,10.80
2023-09-27T08:20:38.605Z,12.83
2023-09-27T08:23:06.392Z,6.13
2023-09-27T08:25:34.662Z,9.70
2023-09-27T08:28:06.368Z,7.53
2023-09-27T08:30:35.542Z,7.93
2023-09-27T08:33:03.683Z,6.33
2023-09-27T08:35:31.663Z,6.90
2023-09-27T08:38:00.796Z,8.17
2023-09-27T08:40:28.859Z,8.73
2023-09-27T08:42:58.586Z,6.03
2023-09-27T08:45:27.653Z,8.37
2023-09-27T08:47:57.792Z,8.50
2023-09-27T08:50:26.153Z,7.53
2023-09-27T08:52:54.495Z,7.93
2023-09-27T08:55:22.779Z,5.53
2023-09-27T08:57:54.243Z,10.00
2023-09-27T09:00:27.397Z,6.53
2023-09-27T09:03:00.063Z,12.70
2023-09-27T09:05:31.106Z,10.53
2023-09-27T09:08:00.512Z,9.53
2023-09-27T09:10:28.437Z,8.47
2023-09-27T09:12:56.154Z,10.73
2023-09-27T09:15:31.207Z,8.63
2023-09-27T09:17:59.917Z,7.77
2023-09-27T09:20:33.848Z,6.07
2023-09-27T09:23:08.378Z,7.10
2023-09-27T09:25:43.652Z,8.20
2023-09-27T09:28:14.215Z,8.40
2023-09-27T09:30:47.266Z,4.27
2023-09-27T09:33:18.185Z,6.27
2023-09-27T09:35:46.022Z,9.57
2023-09-27T09:38:24.549Z,14.00
2023-09-27T09:40:55.937Z,6.37
2023-09-27T09:43:30.275Z,9.73
2023-09-27T09:45:58.818Z,7.97
2023-09-27T09:48:27.876Z,7.43
2023-09-27T09:51:00.475Z,6.77
2023-09-27T09:53:31.086Z,5.87
2023-09-27T09:56:28.800Z,5.23
2023-09-27T09:58:51.333Z,5.70
2023-09-27T10:01:22.490Z,7.17
2023-09-27T10:03:51.582Z,7.33
2023-09-27T10:06:22.522Z,4.97
2023-09-27T10:08:58.806Z,5.00
2023-09-27T10:11:27.398Z,5.53
2023-09-27T10:13:55.753Z,5.97
2023-09-27T10:16:24.732Z,7.67
2023-09-27T10:18:55.791Z,6.03
2023-09-27T10:21:23.554Z,6.10
2023-09-27T10:24:03.491Z,5.20
2023-09-27T10:26:36.893Z,5.40
2023-09-27T10:29:13.902Z,7.80
2023-09-27T10:32:01.718Z,6.20
2023-09-27T10:34:42.462Z,8.43
2023-09-27T10:37:18.003Z,5.53
2023-09-27T10:40:13.272Z,4.73
2023-09-27T10:42:43.929Z,5.67
2023-09-27T10:45:12.031Z,4.70
2023-09-27T10:47:39.908Z,6.93
2023-09-27T10:50:08.164Z,4.87
2023-09-27T10:52:35.892Z,6.97
2023-09-27T10:55:10.051Z,4.90
2023-09-27T10:57:37.751Z,4.03
2023-09-27T11:00:10.875Z,3.40
2023-09-27T11:02:39.127Z,5.67
2023-09-27T11:05:08.023Z,6.10
2023-09-27T11:07:47.202Z,4.83
2023-09-27T11:10:31.834Z,4.17
2023-09-27T11:13:06.362Z,5.07
2023-09-27T11:15:35.895Z,4.70
2023-09-27T11:18:05.488Z,5.10
2023-09-27T11:20:33.406Z,5.67
2023-09-27T11:23:02.859Z,4.73
2023-09-27T11:25:31.226Z,5.03
2023-09-27T11:27:59.452Z,4.10
2023-09-27T11:30:29.243Z,4.93
2023-09-27T11:32:58.970Z,6.13
2023-09-27T11:35:27.542Z,6.17
2023-09-27T11:38:09.269Z,10.40
2023-09-27T11:40:37.228Z,3.77
2023-09-27T11:43:05.134Z,8.70
2023-09-27T11:45:43.296Z,5.50
2023-09-27T11:48:12.387Z,3.63
2023-09-27T11:50:40.260Z,5.47
2023-09-27T11:53:08.100Z,5.00
2023-09-27T11:55:36.707Z,3.90
2023-09-27T11:58:04.886Z,4.53
2023-09-27T12:00:33.315Z,4.53
2023-09-27T12:03:01.107Z,4.27
2023-09-27T12:05:30.601Z,5.67
2023-09-27T12:07:58.405Z,4.10
2023-09-27T12:10:26.120Z,6.40
2023-09-27T12:12:55.507Z,4.43
2023-09-27T12:15:23.714Z,4.10
2023-09-27T12:17:51.415Z,5.07
2023-09-27T12:20:36.078Z,7.13
2023-09-27T12:23:08.313Z,3.90
2023-09-27T12:25:36.161Z,3.73
2023-09-27T12:28:04.613Z,3.93
2023-09-27T12:30:33.275Z,6.13
2023-09-27T12:33:01.211Z,7.60
2023-09-27T12:35:29.019Z,3.83
2023-09-27T12:37:56.772Z,3.80
2023-09-27T12:40:26.509Z,4.60
2023-09-27T12:42:54.682Z,3.67
2023-09-27T12:45:22.503Z,6.13
2023-09-27T12:47:50.198Z,4.20
2023-09-27T12:50:21.447Z,4.73
2023-09-27T12:52:49.079Z,3.97
2023-09-27T12:55:16.721Z,5.60
2023-09-27T12:57:47.470Z,5.73
2023-09-27T13:00:15.689Z,6.20
2023-09-27T13:02:43.590Z,5.00
2023-09-27T13:05:11.588Z,3.73
2023-09-27T13:07:39.334Z,3.40
2023-09-27T13:10:08.251Z,3.87
2023-09-27T13:12:35.932Z,5.27
2023-09-27T13:15:07.200Z,6.87
2023-09-27T13:17:35.410Z,4.70
2023-09-27T13:20:08.170Z,2.90
2023-09-27T13:22:35.817Z,5.57
2023-09-27T13:25:05.211Z,3.37
2023-09-27T13:27:33.024Z,4.63
2023-09-27T13:30:00.647Z,4.20
2023-09-27T13:32:29.762Z,3.13
2023-09-27T13:34:57.796Z,4.73
2023-09-27T13:37:25.532Z,3.57
2023-09-27T13:39:53.138Z,3.50
2023-09-27T13:42:20.959Z,4.47
2023-09-27T13:44:49.436Z,4.77
2023-09-27T13:47:17.575Z,6.03
2023-09-27T13:49:47.389Z,9.13
2023-09-27T13:52:14.977Z,4.77
2023-09-27T13:54:42.999Z,6.53
2023-09-27T13:57:11.334Z,3.70
2023-09-27T13:59:39.637Z,4.47
2023-09-27T14:02:07.938Z,4.57
2023-09-27T14:04:35.869Z,4.77
2023-09-27T14:07:05.144Z,5.27
2023-09-27T14:09:32.886Z,3.67
2023-09-27T14:12:00.732Z,2.80
2023-09-27T14:14:28.828Z,5.20
2023-09-27T14:16:59.072Z,4.80
2023-09-27T14:19:26.839Z,3.00
2023-09-27T14:21:55.416Z,5.83
2023-09-27T14:24:24.817Z,4.10
2023-09-27T14:26:52.573Z,5.50
2023-09-27T14:29:29.674Z,4.20
2023-09-27T14:32:05.542Z,3.50
2023-09-27T14:34:41.445Z,3.47
2023-09-27T14:37:10.710Z,8.50
2023-09-27T14:39:39.809Z,5.30
2023-09-27T14:42:10.837Z,5.47
2023-09-27T14:44:38.717Z,4.23
2023-09-27T14:47:06.427Z,3.33
2023-09-27T14:49:34.473Z,4.13
2023-09-27T14:52:02.172Z,4.73
2023-09-27T14:54:30.096Z,6.20
2023-09-27T14:57:00.091Z,5.90
2023-09-27T14:59:27.888Z,5.23
2023-09-27T15:01:59.125Z,7.10
2023-09-27T15:04:27.509Z,3.67
2023-09-27T15:06:55.978Z,4.43
2023-09-27T15:09:23.647Z,4.40
2023-09-27T15:11:51.520Z,3.50
2023-09-27T15:14:20.792Z,6.67
2023-09-27T15:16:49.117Z,4.60
2023-09-27T15:19:17.088Z,7.83
2023-09-27T15:21:45.011Z,3.90
2023-09-27T15:24:12.955Z,3.63
2023-09-27T15:26:40.581Z,7.13
2023-09-27T15:29:08.722Z,5.07
2023-09-27T15:31:38.245Z,6.50
2023-09-27T15:34:06.417Z,4.27
2023-09-27T15:36:34.171Z,7.30
2023-09-27T15:39:02.146Z,4.73
2023-09-27T15:41:30.968Z,4.27
2023-09-27T15:43:58.753Z,3.80
2023-09-27T15:46:26.481Z,3.50
2023-09-27T15:48:55.587Z,4.47
2023-09-27T15:51:23.141Z,5.27
2023-09-27T15:54:00.058Z,3.37
2023-09-27T15:56:35.684Z,5.17
2023-09-27T15:59:07.719Z,6.47
2023-09-27T16:01:36.367Z,5.83
2023-09-27T16:04:08.841Z,7.70
2023-09-27T16:06:36.818Z,3.83
2023-09-27T16:09:06.360Z,6.70
2023-09-27T16:11:34.395Z,4.90
2023-09-27T16:14:02.157Z,4.73
2023-09-27T16:16:30.838Z,4.70
2023-09-27T16:18:58.627Z,4.23
2023-09-27T16:21:28.057Z,5.00
2023-09-27T16:23:58.459Z,8.70
2023-09-27T16:26:26.689Z,4.53
2023-09-27T16:28:54.938Z,5.50
2023-09-27T16:31:23.434Z,5.93
2023-09-27T16:33:51.204Z,3.93
2023-09-27T16:36:18.989Z,5.67
2023-09-27T16:38:50.640Z,7.17
2023-09-27T16:41:19.911Z,5.80
2023-09-27T16:43:47.780Z,4.40
2023-09-27T16:46:15.482Z,4.27
2023-09-27T16:48:43.648Z,7.80
2023-09-27T16:51:11.723Z,5.10
2023-09-27T16:53:39.390Z,4.80
2023-09-27T16:56:09.399Z,6.17
2023-09-27T16:58:37.566Z,4.07
2023-09-27T17:01:05.783Z,3.70
2023-09-27T17:03:33.758Z,4.50
2023-09-27T17:06:01.565Z,6.37
2023-09-27T17:08:29.431Z,6.43
2023-09-27T17:10:57.210Z,5.60
2023-09-27T17:13:26.383Z,8.03
2023-09-27T17:15:54.037Z,7.43
2023-09-27T17:18:22.138Z,4.17
2023-09-27T17:20:49.824Z,4.93
2023-09-27T17:23:17.992Z,5.00
2023-09-27T17:25:45.683Z,5.90
2023-09-27T17:28:14.339Z,4.23
2023-09-27T17:30:43.545Z,7.50
2023-09-27T17:33:11.371Z,6.17
2023-09-27T17:35:39.017Z,5.00
2023-09-27T17:38:09.922Z,5.27
2023-09-27T17:40:37.840Z,5.77
2023-09-27T17:43:05.614Z,4.00
2023-09-27T17:45:33.231Z,4.40
2023-09-27T17:48:02.438Z,4.70
2023-09-27T17:50:33.969Z,5.57
2023-09-27T17:53:01.967Z,7.10
2023-09-27T17:55:29.882Z,4.80
2023-09-27T17:57:57.572Z,7.10
2023-09-27T18:00:27.165Z,7.83
2023-09-27T18:02:55.080Z,7.40
2023-09-27T18:05:24.131Z,8.40
2023-09-27T18:07:51.834Z,8.47
2023-09-27T18:10:19.656Z,8.57
2023-09-27T18:12:47.294Z,7.60
2023-09-27T18:15:27.044Z,6.83
2023-09-27T18:17:56.311Z,5.67
2023-09-27T18:20:25.889Z,7.17
2023-09-27T18:22:53.819Z,5.97
2023-09-27T18:25:21.743Z,6.07
2023-09-27T18:27:49.362Z,7.33
2023-09-27T18:30:17.521Z,8.07
2023-09-27T18:32:46.361Z,5.40
2023-09-27T18:35:14.215Z,7.13
2023-09-27T18:37:43.572Z,7.03
2023-09-27T18:40:11.787Z,6.27
2023-09-27T18:42:39.506Z,6.07
2023-09-27T18:45:07.957Z,5.80
2023-09-27T18:47:35.830Z,7.90
2023-09-27T18:50:05.335Z,4.63
2023-09-27T18:52:33.560Z,6.57
2023-09-27T18:55:03.101Z,6.37
2023-09-27T18:57:30.812Z,4.80
2023-09-27T18:59:58.852Z,5.33
2023-09-27T19:02:26.769Z,7.10
2023-09-27T19:04:54.880Z,6.43
2023-09-27T19:07:23.613Z,6.57
2023-09-27T19:09:51.798Z,4.50
2023-09-27T19:12:21.235Z,7.00
2023-09-27T19:14:49.204Z,6.13
2023-09-27T19:17:17.274Z,5.30
2023-09-27T19:19:45.275Z,7.50
2023-09-27T19:22:13.157Z,7.23
2023-09-27T19:24:42.296Z,5.03
2023-09-27T19:27:10.498Z,5.43
2023-09-27T19:29:39.725Z,6.33
2023-09-27T19:32:07.432Z,5.37
2023-09-27T19:34:37.634Z,7.30
2023-09-27T19:37:05.849Z,5.13
2023-09-27T19:39:33.873Z,7.03
2023-09-27T19:42:02.404Z,6.73
2023-09-27T19:44:30.424Z,5.00
2023-09-27T19:46:59.902Z,5.40
2023-09-27T19:49:28.003Z,5.53
2023-09-27T19:51:56.548Z,6.10
2023-09-27T19:54:24.392Z,5.23
2023-09-27T19:56:52.424Z,5.30
2023-09-27T19:59:22.638Z,4.43
2023-09-27T20:01:50.956Z,6.20
2023-09-27T20:04:20.439Z,4.87
2023-09-27T20:06:48.874Z,4.90
2023-09-27T20:09:16.998Z,5.20
2023-09-27T20:11:44.778Z,7.23
2023-09-27T20:14:12.880Z,5.70
2023-09-27T20:16:40.641Z,6.70
2023-09-27T20:19:09.108Z,4.87
2023-09-27T20:21:39.952Z,4.53
2023-09-27T20:24:08.813Z,6.17
2023-09-27T20:26:36.966Z,6.23
2023-09-27T20:29:05.037Z,5.10
2023-09-27T20:31:33.932Z,4.73
2023-09-27T20:34:02.068Z,4.93
2023-09-27T20:36:30.656Z,5.73
2023-09-27T20:38:59.989Z,5.03
2023-09-27T20:41:27.893Z,5.50
2023-09-27T20:43:56.309Z,4.90
2023-09-27T20:46:24.601Z,6.50
2023-09-27T20:48:52.450Z,5.33
2023-09-27T20:51:20.707Z,6.27
2023-09-27T20:53:49.140Z,6.20
2023-09-27T20:56:18.484Z,5.67
2023-09-27T20:58:48.029Z,7.00
2023-09-27T21:01:25.807Z,6.57
2023-09-27T21:03:54.106Z,7.60
2023-09-27T21:06:25.924Z,4.87
2023-09-27T21:08:53.764Z,4.73
2023-09-27T21:11:23.427Z,5.10
2023-09-27T21:13:51.748Z,6.73
2023-09-27T21:16:19.754Z,5.00
2023-09-27T21:18:47.794Z,4.53
2023-09-27T21:21:16.210Z,7.30
2023-09-27T21:23:44.065Z,5.10
2023-09-27T21:26:13.101Z,7.23
2023-09-27T21:28:42.469Z,10.03
2023-09-27T21:31:11.257Z,4.90
2023-09-27T21:33:39.265Z,4.70
2023-09-27T21:36:07.358Z,5.80
2023-09-27T21:38:35.799Z,5.00
2023-09-27T21:41:03.688Z,5.07
2023-09-27T21:43:34.101Z,5.70
2023-09-27T21:46:04.003Z,6.43
2023-09-27T21:48:31.928Z,6.60
2023-09-27T21:51:00.197Z,10.30
2023-09-27T21:53:29.105Z,4.07
2023-09-27T21:55:57.493Z,6.17
2023-09-27T21:58:26.024Z,7.33
2023-09-27T22:00:54.878Z,4.87
2023-09-27T22:03:25.186Z,5.63
2023-09-27T22:05:53.580Z,4.90
2023-09-27T22:08:24.147Z,6.17
2023-09-27T22:10:54.375Z,5.40
2023-09-27T22:13:29.579Z,4.83
2023-09-27T22:15:59.671Z,6.33
2023-09-27T22:18:29.093Z,5.00
2023-09-27T22:20:57.445Z,5.30
2023-09-27T22:23:33.631Z,4.37
2023-09-27T22:26:01.819Z,5.03
2023-09-27T22:28:32.239Z,5.57
2023-09-27T22:31:02.097Z,4.93
2023-09-27T22:33:34.087Z,4.83
2023-09-27T22:36:02.698Z,4.97
2023-09-27T22:38:32.249Z,6.90
2023-09-27T22:41:00.086Z,5.20
2023-09-27T22:43:28.193Z,4.87
2023-09-27T22:45:56.432Z,3.90
2023-09-27T22:48:28.328Z,4.10
2023-09-27T22:51:01.279Z,5.30
2023-09-27T22:53:31.065Z,4.00
2023-09-27T22:56:00.242Z,5.30
2023-09-27T22:58:29.813Z,3.97
2023-09-27T23:00:59.391Z,4.77
2023-09-27T23:03:30.688Z,4.30
2023-09-27T23:06:02.563Z,4.10
2023-09-27T23:08:30.925Z,6.07
2023-09-27T23:11:00.379Z,4.77
2023-09-27T23:13:38.775Z,4.97
2023-09-27T23:16:21.239Z,5.37
2023-09-27T23:18:50.588Z,5.83
2023-09-27T23:21:20.890Z,4.07
2023-09-27T23:23:57.575Z,7.60
2023-09-27T23:26:52.332Z,4.07
2023-09-27T23:29:37.277Z,5.33
2023-09-27T23:32:05.595Z,6.83
2023-09-27T23:34:35.744Z,5.60
2023-09-27T23:37:09.401Z,5.63
2023-09-27T23:39:44.139Z,3.93
2023-09-27T23:42:26.854Z,4.00
2023-09-27T23:45:02.946Z,3.70
2023-09-27T23:47:32.800Z,6.83
2023-09-27T23:50:02.108Z,4.93
2023-09-27T23:52:31.432Z,5.37
2023-09-27T23:55:04.104Z,4.63
2023-09-27T23:57:33.389Z,4.97
